createdAt,value
2022-09-15T00:01:12.298Z,2.22
2022-09-15T00:03:45.975Z,2.20
2022-09-15T00:06:13.643Z,2.58
2022-09-15T00:08:40.924Z,2.80
2022-09-15T00:11:31.087Z,2.22
2022-09-15T00:14:04.959Z,2.05
2022-09-15T00:16:33.085Z,2.30
2022-09-15T00:19:01.000Z,2.00
2022-09-15T00:21:32.193Z,2.05
2022-09-15T00:24:02.432Z,2.10
2022-09-15T00:26:31.000Z,2.00
2022-09-15T00:29:00.590Z,1.98
2022-09-15T00:31:30.523Z,2.00
2022-09-15T00:34:02.859Z,2.00
2022-09-15T00:36:30.098Z,2.30
2022-09-15T00:38:58.899Z,2.30
2022-09-15T00:41:26.515Z,2.38
2022-09-15T00:44:02.442Z,1.88
2022-09-15T00:46:31.240Z,1.98
2022-09-15T00:49:13.210Z,2.05
2022-09-15T00:51:54.421Z,2.15
2022-09-15T00:54:39.078Z,1.95
2022-09-15T00:57:15.948Z,1.88
2022-09-15T00:59:44.543Z,1.80
2022-09-15T01:02:35.483Z,2.00
2022-09-15T01:05:09.195Z,1.88
2022-09-15T01:07:46.178Z,2.08
2022-09-15T01:10:36.214Z,1.70
2022-09-15T01:13:08.671Z,2.03
2022-09-15T01:16:26.262Z,1.75
2022-09-15T01:19:43.530Z,1.67
2022-09-15T01:22:51.355Z,1.40
2022-09-15T01:26:03.417Z,1.45
2022-09-15T01:29:06.891Z,1.55
2022-09-15T01:32:16.173Z,1.42
2022-09-15T01:35:17.247Z,1.50
2022-09-15T01:37:55.629Z,1.60
2022-09-15T01:40:31.556Z,1.60
2022-09-15T01:43:02.097Z,1.73
2022-09-15T01:45:35.871Z,2.03
2022-09-15T01:48:08.762Z,2.30
2022-09-15T01:50:47.134Z,2.80
2022-09-15T01:53:22.405Z,3.28
2022-09-15T01:56:09.674Z,3.17
2022-09-15T01:58:42.089Z,3.00
2022-09-15T02:01:17.169Z,3.10
2022-09-15T02:03:55.698Z,3.60
2022-09-15T02:06:39.841Z,3.30
2022-09-15T02:09:20.866Z,4.10
2022-09-15T02:12:09.092Z,4.18
2022-09-15T02:14:57.881Z,3.85
2022-09-15T02:17:31.281Z,4.45
2022-09-15T02:20:17.579Z,4.47
2022-09-15T02:22:53.916Z,4.43
2022-09-15T02:25:31.197Z,4.68
2022-09-15T02:28:05.878Z,4.00
2022-09-15T02:30:37.895Z,4.30
2022-09-15T02:33:11.946Z,4.32
2022-09-15T02:35:40.862Z,3.97
2022-09-15T02:38:10.957Z,3.95
2022-09-15T02:40:43.201Z,3.70
2022-09-15T02:43:17.361Z,2.90
2022-09-15T02:45:44.269Z,3.13
2022-09-15T02:48:11.769Z,2.92
2022-09-15T02:50:39.197Z,2.70
2022-09-15T02:53:06.432Z,2.45
2022-09-15T02:55:33.652Z,2.60
2022-09-15T02:58:00.675Z,2.15
2022-09-15T03:00:29.068Z,1.90
2022-09-15T03:02:56.279Z,1.98
2022-09-15T03:05:27.588Z,2.22
2022-09-15T03:07:55.189Z,2.00
2022-09-15T03:10:25.014Z,1.95
2022-09-15T03:12:54.557Z,1.52
2022-09-15T03:15:25.813Z,1.67
2022-09-15T03:17:54.247Z,1.38
2022-09-15T03:20:30.461Z,1.70
2022-09-15T03:22:57.502Z,1.75
2022-09-15T03:25:26.913Z,1.67
2022-09-15T03:27:53.808Z,1.80
2022-09-15T03:30:20.932Z,1.88
2022-09-15T03:32:48.737Z,1.60
2022-09-15T03:35:15.714Z,1.55
2022-09-15T03:37:43.140Z,1.60
2022-09-15T03:40:10.840Z,1.50
2022-09-15T03:42:37.803Z,1.40
2022-09-15T03:45:05.179Z,1.52
2022-09-15T03:47:33.329Z,1.77
2022-09-15T03:50:00.198Z,1.45
2022-09-15T03:52:31.963Z,2.67
2022-09-15T03:54:59.065Z,1.25
2022-09-15T03:57:26.248Z,1.92
2022-09-15T03:59:53.275Z,1.45
2022-09-15T04:02:20.136Z,1.45
2022-09-15T04:04:46.956Z,1.63
2022-09-15T04:07:14.026Z,1.67
2022-09-15T04:09:41.921Z,2.05
2022-09-15T04:12:09.879Z,1.83
2022-09-15T04:14:36.816Z,1.73
2022-09-15T04:17:03.797Z,2.08
2022-09-15T04:19:31.024Z,2.03
2022-09-15T04:21:57.990Z,1.70
2022-09-15T04:24:24.988Z,1.90
2022-09-15T04:26:51.938Z,1.60
2022-09-15T04:29:19.488Z,1.80
2022-09-15T04:31:47.121Z,1.58
2022-09-15T04:34:14.393Z,1.67
2022-09-15T04:36:41.380Z,1.58
2022-09-15T04:39:08.235Z,1.65
2022-09-15T04:41:35.145Z,1.90
2022-09-15T04:44:02.625Z,2.20
2022-09-15T04:46:29.775Z,2.25
2022-09-15T04:48:58.695Z,3.08
2022-09-15T04:51:27.212Z,3.40
2022-09-15T04:53:54.225Z,3.50
2022-09-15T04:56:24.524Z,3.65
2022-09-15T04:59:03.844Z,3.05
2022-09-15T05:01:35.085Z,3.70
2022-09-15T05:04:04.701Z,3.55
2022-09-15T05:06:33.294Z,3.53
2022-09-15T05:09:00.360Z,3.42
2022-09-15T05:11:28.534Z,3.20
2022-09-15T05:13:55.517Z,3.17
2022-09-15T05:16:26.623Z,3.53
2022-09-15T05:18:59.383Z,3.38
2022-09-15T05:21:27.561Z,4.00
2022-09-15T05:23:54.863Z,4.00
2022-09-15T05:26:27.715Z,3.97
2022-09-15T05:28:56.908Z,4.13
2022-09-15T05:31:33.854Z,4.40
2022-09-15T05:34:04.409Z,5.22
2022-09-15T05:36:32.957Z,5.10
2022-09-15T05:39:00.366Z,4.53
2022-09-15T05:41:29.118Z,4.47
2022-09-15T05:43:58.410Z,3.95
2022-09-15T05:46:27.323Z,3.78
2022-09-15T05:48:57.870Z,3.20
2022-09-15T05:51:25.506Z,3.17
2022-09-15T05:53:52.555Z,3.13
2022-09-15T05:56:20.405Z,2.92
2022-09-15T05:58:50.013Z,2.53
2022-09-15T06:01:27.498Z,5.85
2022-09-15T06:03:56.604Z,2.95
2022-09-15T06:06:26.037Z,2.05
2022-09-15T06:08:58.893Z,2.10
2022-09-15T06:11:32.272Z,1.98
2022-09-15T06:14:03.427Z,1.70
2022-09-15T06:16:36.092Z,1.85
2022-09-15T06:19:04.132Z,1.40
2022-09-15T06:21:33.440Z,1.40
2022-09-15T06:24:07.331Z,1.70
2022-09-15T06:26:35.012Z,1.60
2022-09-15T06:29:05.396Z,35.63
2022-09-15T06:31:34.544Z,2.10
2022-09-15T06:34:03.867Z,1.60
2022-09-15T06:36:32.287Z,1.90
2022-09-15T06:38:59.492Z,2.10
2022-09-15T06:41:38.191Z,2.50
2022-09-15T06:44:14.229Z,2.63
2022-09-15T06:46:41.284Z,2.90
2022-09-15T06:49:08.237Z,3.10
2022-09-15T06:51:36.190Z,3.17
2022-09-15T06:54:04.255Z,3.28
2022-09-15T06:56:35.822Z,3.80
2022-09-15T06:59:06.048Z,4.30
2022-09-15T07:01:37.815Z,4.72
2022-09-15T07:04:08.585Z,7.95
2022-09-15T07:06:38.519Z,5.78
2022-09-15T07:09:06.969Z,5.85
2022-09-15T07:11:34.317Z,6.63
2022-09-15T07:14:01.829Z,5.90
2022-09-15T07:16:28.901Z,6.32
2022-09-15T07:18:57.864Z,6.03
2022-09-15T07:21:25.194Z,6.30
2022-09-15T07:23:52.580Z,6.45
2022-09-15T07:26:27.159Z,6.00
2022-09-15T07:29:00.052Z,6.13
2022-09-15T07:31:31.533Z,5.50
2022-09-15T07:34:02.584Z,5.18
2022-09-15T07:36:30.936Z,5.20
2022-09-15T07:38:58.548Z,4.78
2022-09-15T07:41:29.134Z,4.75
2022-09-15T07:43:59.391Z,3.42
2022-09-15T07:46:31.312Z,3.28
2022-09-15T07:48:58.616Z,2.80
2022-09-15T07:51:26.640Z,3.20
2022-09-15T07:53:55.075Z,3.38
2022-09-15T07:56:24.491Z,3.42
2022-09-15T07:58:52.176Z,3.30
2022-09-15T08:01:20.659Z,3.58
2022-09-15T08:03:51.155Z,3.22
2022-09-15T08:06:21.932Z,2.95
2022-09-15T08:08:52.421Z,3.70
2022-09-15T08:11:22.275Z,3.00
2022-09-15T08:13:52.375Z,3.40
2022-09-15T08:16:24.904Z,2.92
2022-09-15T08:18:54.290Z,3.33
2022-09-15T08:21:22.873Z,3.17
2022-09-15T08:23:56.591Z,2.80
2022-09-15T08:26:25.977Z,3.03
2022-09-15T08:28:53.071Z,2.90
2022-09-15T08:31:20.016Z,2.90
2022-09-15T08:33:53.040Z,3.10
2022-09-15T08:36:20.025Z,2.90
2022-09-15T08:38:47.868Z,2.88
2022-09-15T08:41:24.313Z,3.10
2022-09-15T08:44:16.597Z,2.90
2022-09-15T08:47:05.466Z,3.05
2022-09-15T08:49:58.320Z,3.20
2022-09-15T08:52:44.370Z,3.20
2022-09-15T08:55:20.453Z,3.35
2022-09-15T08:57:48.535Z,3.00
2022-09-15T09:00:17.354Z,2.95
2022-09-15T09:03:19.532Z,2.70
2022-09-15T09:05:59.371Z,2.80
2022-09-15T09:08:48.399Z,3.40
2022-09-15T09:11:27.523Z,3.10
2022-09-15T09:14:17.554Z,3.60
2022-09-15T09:17:07.961Z,3.22
2022-09-15T09:20:15.561Z,3.50
2022-09-15T09:22:48.398Z,3.47
2022-09-15T09:25:27.637Z,3.30
2022-09-15T09:27:58.399Z,3.20
2022-09-15T09:30:32.644Z,4.07
2022-09-15T09:33:24.321Z,3.70
2022-09-15T09:35:53.378Z,3.40
2022-09-15T09:38:31.495Z,4.25
2022-09-15T09:41:02.294Z,4.10
2022-09-15T09:43:32.828Z,3.58
2022-09-15T09:45:59.944Z,3.38
2022-09-15T09:48:29.854Z,3.88
2022-09-15T09:50:57.180Z,4.10
2022-09-15T09:53:28.887Z,3.50
2022-09-15T09:56:26.966Z,3.10
2022-09-15T09:58:55.348Z,3.45
2022-09-15T10:01:26.367Z,5.43
2022-09-15T10:04:16.908Z,4.03
2022-09-15T10:06:44.179Z,3.83
2022-09-15T10:09:18.303Z,4.63
2022-09-15T10:11:57.444Z,4.45
2022-09-15T10:14:36.496Z,3.88
2022-09-15T10:17:17.851Z,4.10
2022-09-15T10:20:07.115Z,3.83
2022-09-15T10:22:38.851Z,4.68
2022-09-15T10:25:49.396Z,3.65
2022-09-15T10:28:23.863Z,5.47
2022-09-15T10:31:11.092Z,3.50
2022-09-15T10:33:45.013Z,3.85
2022-09-15T10:36:28.562Z,4.53
2022-09-15T10:39:13.097Z,4.07
2022-09-15T10:42:18.029Z,4.15
2022-09-15T10:45:25.001Z,3.80
2022-09-15T10:48:40.077Z,4.43
2022-09-15T10:51:57.965Z,4.88
2022-09-15T10:55:06.662Z,4.65
2022-09-15T10:57:58.434Z,4.68
2022-09-15T11:00:35.021Z,4.18
2022-09-15T11:03:23.399Z,3.03
2022-09-15T11:06:28.684Z,3.63
2022-09-15T11:09:17.471Z,3.55
2022-09-15T11:11:57.728Z,6.43
2022-09-15T11:15:00.550Z,5.65
2022-09-15T11:17:54.484Z,4.55
2022-09-15T11:20:42.936Z,5.57
2022-09-15T11:23:21.537Z,4.25
2022-09-15T11:26:07.464Z,4.28
2022-09-15T11:29:03.525Z,3.70
2022-09-15T11:31:42.640Z,4.05
2022-09-15T11:34:33.233Z,5.00
2022-09-15T11:37:37.777Z,4.65
2022-09-15T11:40:17.610Z,5.28
2022-09-15T11:43:16.390Z,5.03
2022-09-15T11:45:50.650Z,5.18
2022-09-15T11:48:30.191Z,5.35
2022-09-15T11:51:02.214Z,6.75
2022-09-15T11:53:57.453Z,5.72
2022-09-15T11:56:52.231Z,6.03
2022-09-15T11:59:46.913Z,5.70
2022-09-15T12:02:30.548Z,6.43
2022-09-15T12:05:22.094Z,5.97
2022-09-15T12:07:58.803Z,5.82
2022-09-15T12:10:32.141Z,6.07
2022-09-15T12:13:01.208Z,6.25
2022-09-15T12:15:29.376Z,5.78
2022-09-15T12:18:37.358Z,6.03
2022-09-15T12:21:38.796Z,6.10
2022-09-15T12:24:56.112Z,5.95
2022-09-15T12:27:26.391Z,6.85
2022-09-15T12:29:59.924Z,6.78
2022-09-15T12:32:35.164Z,6.93
2022-09-15T12:35:17.789Z,5.63
2022-09-15T12:37:54.951Z,6.20
2022-09-15T12:40:33.553Z,6.15
2022-09-15T12:43:23.502Z,5.90
2022-09-15T12:46:01.314Z,6.63
2022-09-15T12:48:36.473Z,6.00
2022-09-15T12:51:07.644Z,6.55
2022-09-15T12:53:50.105Z,5.93
2022-09-15T12:56:27.316Z,6.40
2022-09-15T12:58:56.286Z,5.60
2022-09-15T13:01:23.310Z,6.90
2022-09-15T13:03:50.171Z,6.80
2022-09-15T13:06:23.971Z,6.07
2022-09-15T13:09:19.001Z,6.55
2022-09-15T13:11:53.855Z,7.28
2022-09-15T13:14:37.768Z,7.53
2022-09-15T13:17:17.256Z,7.43
2022-09-15T13:19:48.968Z,8.15
2022-09-15T13:22:36.824Z,7.00
2022-09-15T13:25:15.809Z,8.07
2022-09-15T13:27:53.843Z,7.20
2022-09-15T13:30:20.752Z,7.53
2022-09-15T13:33:18.804Z,6.60
2022-09-15T13:35:51.665Z,13.98
2022-09-15T13:38:58.684Z,7.60
2022-09-15T13:41:59.804Z,6.18
2022-09-15T13:44:51.551Z,5.88
2022-09-15T13:47:49.618Z,5.63
2022-09-15T13:50:41.853Z,7.05
2022-09-15T13:53:42.934Z,6.35
2022-09-15T13:56:27.835Z,7.28
2022-09-15T13:59:11.336Z,7.00
2022-09-15T14:01:42.938Z,6.70
2022-09-15T14:04:19.220Z,7.90
2022-09-15T14:06:58.525Z,7.30
2022-09-15T14:09:45.167Z,6.70
2022-09-15T14:12:15.121Z,6.77
2022-09-15T14:14:46.167Z,6.05
2022-09-15T14:17:25.827Z,6.25
2022-09-15T14:19:59.177Z,6.63
2022-09-15T14:22:29.133Z,7.70
2022-09-15T14:24:58.130Z,6.90
2022-09-15T14:27:29.670Z,7.03
2022-09-15T14:30:01.392Z,8.02
2022-09-15T14:32:33.749Z,6.95
2022-09-15T14:35:07.714Z,6.95
2022-09-15T14:37:35.545Z,6.95
2022-09-15T14:40:23.610Z,7.55
2022-09-15T14:42:50.831Z,8.73
2022-09-15T14:48:18.101Z,9.07
2022-09-15T14:51:18.394Z,8.40
2022-09-15T14:53:51.988Z,9.23
2022-09-15T14:56:28.452Z,9.75
2022-09-15T14:59:01.747Z,8.65
2022-09-15T15:01:40.255Z,10.95
2022-09-15T15:04:40.842Z,9.65
2022-09-15T15:07:22.749Z,11.43
2022-09-15T15:09:58.403Z,12.93
2022-09-15T15:12:48.610Z,12.40
2022-09-15T15:15:18.499Z,14.68
2022-09-15T15:17:51.119Z,14.05
2022-09-15T15:20:30.211Z,13.75
2022-09-15T15:23:23.366Z,14.82
2022-09-15T15:25:51.242Z,14.80
2022-09-15T15:28:47.629Z,14.10
2022-09-15T15:31:25.059Z,15.13
2022-09-15T15:34:05.511Z,14.50
2022-09-15T15:36:36.523Z,14.25
2022-09-15T15:39:07.883Z,13.25
2022-09-15T15:41:41.109Z,14.20
2022-09-15T15:44:27.662Z,14.10
2022-09-15T15:47:01.600Z,13.57
2022-09-15T15:49:32.515Z,13.50
2022-09-15T15:52:01.790Z,12.95
2022-09-15T15:54:28.802Z,12.02
2022-09-15T15:57:19.545Z,13.20
2022-09-15T15:59:46.932Z,13.50
2022-09-15T16:02:14.074Z,13.13
2022-09-15T16:04:41.143Z,12.95
2022-09-15T16:07:18.174Z,12.60
2022-09-15T16:09:47.332Z,11.80
2022-09-15T16:12:16.582Z,11.95
2022-09-15T16:14:43.367Z,11.55
2022-09-15T16:17:10.854Z,11.20
2022-09-15T16:19:37.761Z,12.15
2022-09-15T16:22:04.773Z,12.35
2022-09-15T16:24:31.717Z,11.40
2022-09-15T16:26:58.874Z,12.00
2022-09-15T16:29:29.869Z,11.95
2022-09-15T16:31:57.090Z,8.30
2022-09-15T16:34:23.858Z,7.55
2022-09-15T16:36:50.754Z,7.88
2022-09-15T16:39:17.734Z,10.10
2022-09-15T16:41:44.714Z,8.73
2022-09-15T16:44:19.604Z,8.30
2022-09-15T16:46:47.063Z,9.10
2022-09-15T16:49:13.960Z,9.07
2022-09-15T16:51:40.781Z,8.15
2022-09-15T16:54:18.450Z,8.65
2022-09-15T16:56:47.029Z,8.57
2022-09-15T16:59:14.492Z,9.00
2022-09-15T17:01:41.546Z,7.25
2022-09-15T17:04:15.994Z,10.65
2022-09-15T17:06:43.778Z,7.10
2022-09-15T17:09:10.737Z,7.63
2022-09-15T17:11:37.676Z,6.80
2022-09-15T17:14:04.726Z,5.22
2022-09-15T17:16:31.832Z,6.63
2022-09-15T17:18:58.905Z,6.40
2022-09-15T17:21:26.441Z,5.72
2022-09-15T17:23:53.691Z,5.40
2022-09-15T17:26:30.506Z,4.95
2022-09-15T17:29:06.530Z,5.63
2022-09-15T17:34:02.388Z,5.13
2022-09-15T17:36:29.505Z,4.40
2022-09-15T17:38:57.492Z,4.57
2022-09-15T17:41:24.595Z,4.18
2022-09-15T17:43:53.165Z,4.85
2022-09-15T17:46:20.238Z,4.35
2022-09-15T17:48:47.228Z,3.78
2022-09-15T17:51:18.152Z,3.88
2022-09-15T17:53:47.259Z,4.25
2022-09-15T17:56:18.546Z,4.05
2022-09-15T17:58:45.995Z,3.65
2022-09-15T18:01:16.674Z,4.05
2022-09-15T18:03:45.443Z,3.55
2022-09-15T18:06:15.000Z,3.70
2022-09-15T18:08:42.136Z,4.30
2022-09-15T18:11:16.561Z,3.97
2022-09-15T18:13:50.059Z,4.15
2022-09-15T18:16:19.807Z,3.75
2022-09-15T18:18:47.360Z,3.20
2022-09-15T18:21:28.918Z,3.10
2022-09-15T18:23:58.625Z,2.83
2022-09-15T18:26:26.839Z,3.78
2022-09-15T18:28:55.047Z,3.55
2022-09-15T18:31:25.674Z,3.05
2022-09-15T18:33:52.727Z,3.35
2022-09-15T18:36:23.993Z,3.35
2022-09-15T18:38:51.133Z,3.10
2022-09-15T18:41:18.786Z,3.00
2022-09-15T18:43:50.372Z,2.75
2022-09-15T18:46:19.617Z,3.42
2022-09-15T18:48:46.720Z,3.45
2022-09-15T18:51:23.699Z,3.08
2022-09-15T18:53:54.219Z,3.28
2022-09-15T18:56:22.567Z,2.63
2022-09-15T18:58:54.763Z,3.80
2022-09-15T19:01:27.731Z,3.10
2022-09-15T19:03:54.899Z,2.50
2022-09-15T19:06:24.269Z,2.78
2022-09-15T19:08:51.389Z,2.97
2022-09-15T19:11:20.509Z,2.65
2022-09-15T19:13:48.700Z,2.60
2022-09-15T19:16:34.616Z,3.15
2022-09-15T19:19:07.328Z,2.70
2022-09-15T19:21:34.673Z,2.75
2022-09-15T19:24:01.834Z,3.50
2022-09-15T19:26:29.705Z,2.80
2022-09-15T19:28:57.726Z,2.70
2022-09-15T19:31:32.447Z,2.42
2022-09-15T19:33:59.750Z,2.42
2022-09-15T19:36:28.982Z,2.60
2022-09-15T19:38:58.132Z,2.15
2022-09-15T19:41:25.995Z,2.65
2022-09-15T19:43:53.749Z,3.15
2022-09-15T19:46:25.356Z,2.40
2022-09-15T19:48:54.315Z,2.42
2022-09-15T19:51:22.795Z,2.15
2022-09-15T19:53:52.964Z,2.33
2022-09-15T19:56:23.201Z,2.33
2022-09-15T19:58:50.181Z,2.30
2022-09-15T20:01:18.152Z,2.28
2022-09-15T20:03:45.777Z,1.90
2022-09-15T20:06:12.883Z,2.40
2022-09-15T20:08:41.836Z,2.25
2022-09-15T20:11:09.772Z,2.40
2022-09-15T20:13:41.413Z,1.55
2022-09-15T20:16:08.556Z,1.92
2022-09-15T20:18:39.394Z,1.73
2022-09-15T20:21:12.369Z,1.75
2022-09-15T20:23:49.672Z,1.77
2022-09-15T20:26:18.715Z,1.60
2022-09-15T20:28:46.485Z,1.55
2022-09-15T20:31:19.391Z,1.60
2022-09-15T20:33:48.874Z,2.00
2022-09-15T20:36:28.593Z,1.60
2022-09-15T20:38:56.869Z,1.77
2022-09-15T20:41:27.078Z,1.92
2022-09-15T20:43:54.631Z,2.22
2022-09-15T20:46:24.339Z,2.47
2022-09-15T20:48:52.615Z,1.90
2022-09-15T20:51:23.447Z,2.22
2022-09-15T20:53:55.293Z,1.70
2022-09-15T20:56:26.016Z,1.75
2022-09-15T20:58:55.373Z,2.25
2022-09-15T21:01:26.026Z,1.60
2022-09-15T21:03:55.391Z,1.90
2022-09-15T21:06:28.229Z,1.75
2022-09-15T21:08:56.840Z,1.52
2022-09-15T21:11:26.694Z,1.40
2022-09-15T21:13:55.658Z,1.30
2022-09-15T21:16:27.605Z,1.20
2022-09-15T21:18:58.234Z,1.50
2022-09-15T21:21:31.161Z,1.45
2022-09-15T21:24:05.319Z,1.48
2022-09-15T21:26:35.476Z,1.92
2022-09-15T21:29:02.824Z,1.88
2022-09-15T21:31:33.181Z,1.58
2022-09-15T21:34:00.313Z,2.00
2022-09-15T21:36:30.642Z,1.30
2022-09-15T21:38:59.526Z,1.65
2022-09-15T21:41:30.037Z,1.58
2022-09-15T21:43:59.169Z,1.40
2022-09-15T21:46:30.208Z,1.85
2022-09-15T21:48:59.789Z,2.28
2022-09-15T21:51:29.372Z,1.75
2022-09-15T21:53:59.439Z,1.90
2022-09-15T21:56:29.129Z,2.17
2022-09-15T21:58:56.076Z,2.20
2022-09-15T22:01:27.996Z,1.48
2022-09-15T22:03:59.630Z,1.95
2022-09-15T22:06:33.315Z,2.00
2022-09-15T22:09:05.364Z,1.88
2022-09-15T22:11:33.204Z,9.60
2022-09-15T22:14:03.055Z,2.05
2022-09-15T22:16:30.680Z,2.03
2022-09-15T22:18:57.819Z,1.50
2022-09-15T22:21:28.467Z,2.08
2022-09-15T22:23:57.791Z,1.83
2022-09-15T22:26:31.354Z,2.00
2022-09-15T22:29:02.603Z,1.75
2022-09-15T22:31:30.348Z,2.00
2022-09-15T22:33:57.555Z,1.70
2022-09-15T22:36:29.911Z,1.77
2022-09-15T22:39:04.227Z,1.85
2022-09-15T22:41:34.916Z,1.88
2022-09-15T22:44:02.696Z,1.67
2022-09-15T22:46:29.524Z,1.90
2022-09-15T22:48:56.515Z,1.92
2022-09-15T22:51:23.597Z,2.08
2022-09-15T22:53:54.662Z,1.67
2022-09-15T22:56:21.825Z,1.80
2022-09-15T22:58:50.121Z,1.73
2022-09-15T23:01:28.060Z,1.90
2022-09-15T23:03:59.021Z,2.00
2022-09-15T23:06:30.760Z,1.60
2022-09-15T23:09:04.618Z,1.88
2022-09-15T23:11:33.563Z,1.77
2022-09-15T23:14:01.966Z,1.80
2022-09-15T23:16:30.875Z,2.17
2022-09-15T23:18:58.553Z,2.10
2022-09-15T23:21:25.948Z,2.10
2022-09-15T23:23:54.975Z,2.38
2022-09-15T23:26:24.233Z,2.30
2022-09-15T23:28:51.856Z,2.60
2022-09-15T23:31:20.548Z,2.00
2022-09-15T23:33:48.060Z,2.13
2022-09-15T23:36:21.220Z,1.88
2022-09-15T23:38:49.617Z,2.00
2022-09-15T23:41:18.085Z,1.88
2022-09-15T23:43:45.559Z,1.67
2022-09-15T23:46:12.855Z,1.60
2022-09-15T23:48:39.869Z,1.65
2022-09-15T23:51:06.833Z,1.30
2022-09-15T23:53:34.328Z,1.75
2022-09-15T23:56:02.307Z,1.48
2022-09-15T23:58:29.074Z,1.73
